Time;durP1;ratioP1;P1;durP2;ratioP2;P2;SDS_P1;SDS_P2;PMS_P1;PMS_P2;Temp;Humidity;BMP_temperature;BMP_pressure;BME280_temperature;BME280_humidity;BME280_pressure;Samples;Min_cycle;Max_cycle;Signal;HPM_P1;HPM_P2
2022/08/07 00:00:40;;;;;;;7.80;4.68;;;18.60;96.40;;;;;;5045250;28;20596;-57
2022/08/07 00:03:07;;;;;;;8.02;4.50;;;18.70;96.90;;;;;;5051500;28;20176;-54
2022/08/07 00:05:33;;;;;;;6.53;4.30;;;18.60;96.60;;;;;;5036727;28;20211;-56
2022/08/07 00:07:58;;;;;;;8.20;4.32;;;18.60;96.60;;;;;;5050344;28;20648;-55
2022/08/07 00:10:25;;;;;;;10.23;4.38;;;18.60;96.60;;;;;;5017751;28;20521;-55
2022/08/07 00:12:52;;;;;;;5.75;4.30;;;18.60;96.50;;;;;;5035387;28;20184;-56
2022/08/07 00:15:18;;;;;;;12.73;5.28;;;18.50;96.60;;;;;;5050026;28;20206;-56
2022/08/07 00:17:44;;;;;;;6.85;4.40;;;18.50;96.70;;;;;;5032342;28;20188;-53
2022/08/07 00:20:10;;;;;;;9.18;4.90;;;18.50;96.80;;;;;;5034972;28;20194;-56
2022/08/07 00:22:36;;;;;;;7.85;4.70;;;18.50;96.80;;;;;;5035366;28;20180;-55
2022/08/07 00:25:06;;;;;;;8.98;4.38;;;18.50;96.80;;;;;;5036275;28;20271;-53
2022/08/07 00:27:32;;;;;;;8.25;4.72;;;18.40;96.90;;;;;;5036409;28;20631;-51
2022/08/07 00:29:58;;;;;;;9.23;5.18;;;18.40;97.00;;;;;;5031987;28;20184;-55
2022/08/07 00:32:24;;;;;;;10.70;5.97;;;18.30;96.90;;;;;;5017500;28;20191;-53
2022/08/07 00:34:50;;;;;;;9.38;5.70;;;18.30;96.80;;;;;;5046764;28;20180;-53
2022/08/07 00:37:16;;;;;;;9.77;5.40;;;18.20;96.90;;;;;;5017791;28;20176;-53
2022/08/07 00:39:42;;;;;;;8.13;4.60;;;18.10;97.20;;;;;;5052037;28;20253;-54
2022/08/07 00:42:08;;;;;;;7.32;4.90;;;18.00;97.40;;;;;;5035717;28;20654;-53
2022/08/07 00:44:34;;;;;;;7.40;4.78;;;18.00;97.60;;;;;;5051239;28;20242;-52
2022/08/07 00:47:01;;;;;;;7.07;4.80;;;18.00;97.70;;;;;;5033695;28;20223;-54
2022/08/07 00:49:27;;;;;;;8.52;4.88;;;18.10;97.70;;;;;;5048553;28;20194;-54
2022/08/07 00:51:53;;;;;;;7.35;4.57;;;18.10;97.70;;;;;;5055151;28;20171;-55
2022/08/07 00:54:19;;;;;;;7.38;4.65;;;18.00;97.70;;;;;;5039351;28;20219;-55
2022/08/07 00:56:47;;;;;;;16.17;5.47;;;18.00;97.60;;;;;;5053683;28;20183;-52
2022/08/07 00:59:13;;;;;;;7.38;5.18;;;18.00;97.60;;;;;;5053123;28;20206;-55
2022/08/07 01:01:39;;;;;;;8.88;5.13;;;18.00;97.60;;;;;;5021025;28;20184;-55
2022/08/07 01:04:05;;;;;;;8.82;5.07;;;18.00;97.70;;;;;;5040167;28;20632;-55
2022/08/07 01:06:32;;;;;;;8.55;5.25;;;18.00;97.80;;;;;;5035547;28;20187;-50
2022/08/07 01:08:59;;;;;;;8.35;5.50;;;18.00;97.80;;;;;;5040112;28;20636;-51
2022/08/07 01:11:25;;;;;;;8.10;5.47;;;18.00;98.00;;;;;;5036620;28;20390;-55
2022/08/07 01:13:51;;;;;;;8.93;5.38;;;17.90;98.00;;;;;;5024262;28;20199;-58
2022/08/07 01:16:18;;;;;;;9.23;5.80;;;17.90;98.00;;;;;;5017193;28;20194;-51
2022/08/07 01:18:44;;;;;;;8.57;5.55;;;17.90;98.10;;;;;;5019744;28;20180;-55
2022/08/07 01:21:12;;;;;;;8.55;5.43;;;17.80;98.20;;;;;;5034405;28;20646;-55
2022/08/07 01:23:40;;;;;;;11.60;5.47;;;17.80;98.30;;;;;;5017300;28;20562;-54
2022/08/07 01:26:12;;;;;;;7.80;4.95;;;17.80;98.30;;;;;;5028140;28;20228;-54
2022/08/07 01:28:40;;;;;;;7.53;5.75;;;17.80;98.40;;;;;;5026831;28;20198;-53
2022/08/07 01:31:06;;;;;;;7.93;5.18;;;17.80;98.40;;;;;;5047795;28;20184;-52
2022/08/07 01:33:33;;;;;;;8.55;5.40;;;17.80;98.50;;;;;;5030034;28;20219;-55
2022/08/07 01:36:01;;;;;;;9.85;5.30;;;17.70;98.50;;;;;;5039251;28;20187;-55
2022/08/07 01:38:29;;;;;;;7.78;5.30;;;17.70;98.60;;;;;;5044348;28;20794;-56
2022/08/07 01:41:02;;;;;;;8.95;5.07;;;17.70;98.70;;;;;;5033063;28;20279;-53
2022/08/07 01:43:29;;;;;;;9.63;5.28;;;17.70;98.70;;;;;;5032679;28;20215;-48
2022/08/07 01:45:57;;;;;;;8.38;5.55;;;17.70;98.80;;;;;;5032324;28;20675;-51
2022/08/07 01:48:25;;;;;;;10.20;5.65;;;17.60;99.00;;;;;;5038074;28;20215;-48
2022/08/07 01:51:13;;;;;;;9.30;5.53;;;17.60;99.10;;;;;;5040227;28;20180;-55
2022/08/07 01:53:44;;;;;;;11.20;5.53;;;17.60;99.40;;;;;;5034305;28;20272;-52
2022/08/07 01:56:20;;;;;;;7.57;4.80;;;17.50;99.60;;;;;;5033489;28;20191;-54
2022/08/07 01:58:51;;;;;;;8.65;4.93;;;17.50;99.90;;;;;;5042049;28;20201;-54
2022/08/07 02:01:30;;;;;;;7.35;4.80;;;17.50;99.90;;;;;;5034543;28;20188;-50
2022/08/07 02:04:04;;;;;;;5.50;4.45;;;17.40;99.90;;;;;;5016996;28;20648;-55
2022/08/07 02:06:34;;;;;;;6.75;4.70;;;17.40;99.90;;;;;;5034462;28;20223;-52
2022/08/07 02:09:08;;;;;;;7.00;4.43;;;17.40;99.90;;;;;;5039094;28;20246;-52
2022/08/07 02:11:40;;;;;;;6.35;4.32;;;17.30;99.90;;;;;;5015746;28;20609;-55
2022/08/07 02:14:09;;;;;;;7.90;4.68;;;17.30;99.90;;;;;;5016697;28;20218;-54
2022/08/07 02:16:37;;;;;;;6.53;4.43;;;17.30;99.90;;;;;;5032908;28;20195;-55
2022/08/07 02:19:06;;;;;;;12.32;4.88;;;17.30;99.90;;;;;;5022188;28;20196;-54
2022/08/07 02:21:36;;;;;;;7.55;4.38;;;17.30;99.90;;;;;;5027709;28;20647;-55
2022/08/07 02:24:04;;;;;;;8.75;4.75;;;17.30;99.90;;;;;;5017512;28;20662;-55
2022/08/07 02:26:32;;;;;;;7.20;5.25;;;17.20;99.90;;;;;;5046529;28;20264;-53
2022/08/07 02:28:59;;;;;;;9.48;5.10;;;17.20;99.90;;;;;;5022655;28;20196;-55
2022/08/07 02:31:27;;;;;;;9.60;4.75;;;17.10;99.90;;;;;;5043633;28;20189;-53
2022/08/07 02:33:56;;;;;;;8.85;5.30;;;17.00;99.90;;;;;;5022547;28;20184;-54
2022/08/07 02:36:23;;;;;;;8.80;4.68;;;16.90;99.90;;;;;;5025472;28;20216;-53
2022/08/07 02:38:52;;;;;;;9.55;4.95;;;16.90;99.90;;;;;;5039662;28;20605;-55
2022/08/07 02:41:19;;;;;;;9.63;5.65;;;16.90;99.90;;;;;;5035233;28;20608;-56
2022/08/07 02:43:47;;;;;;;7.65;4.93;;;16.90;99.90;;;;;;5030595;28;20635;-54
2022/08/07 02:46:18;;;;;;;7.22;4.60;;;16.90;99.90;;;;;;5031681;28;20294;-53
2022/08/07 02:48:45;;;;;;;11.63;5.38;;;16.90;99.90;;;;;;5040728;28;20548;-53
2022/08/07 02:51:17;;;;;;;7.40;4.43;;;16.90;99.90;;;;;;5027040;28;20743;-54
2022/08/07 02:53:49;;;;;;;7.95;4.97;;;16.80;99.90;;;;;;5024296;28;20189;-53
2022/08/07 02:56:19;;;;;;;8.25;5.15;;;16.80;99.90;;;;;;5016453;28;20207;-55
2022/08/07 02:58:46;;;;;;;6.13;4.60;;;16.80;99.90;;;;;;5023940;28;20191;-55
2022/08/07 03:01:13;;;;;;;8.13;4.85;;;16.70;99.90;;;;;;5038454;28;20206;-55
2022/08/07 03:03:41;;;;;;;9.20;5.35;;;16.70;99.90;;;;;;5050987;28;20337;-54
2022/08/07 03:06:07;;;;;;;8.55;4.90;;;16.70;99.90;;;;;;5017405;28;20301;-55
2022/08/07 03:08:34;;;;;;;7.22;4.93;;;16.70;99.90;;;;;;5025451;28;20198;-54
2022/08/07 03:11:01;;;;;;;8.20;4.95;;;16.60;99.90;;;;;;5032349;28;20227;-51
2022/08/07 03:13:33;;;;;;;8.75;4.82;;;16.60;99.90;;;;;;5011182;28;20191;-53
2022/08/07 03:16:00;;;;;;;9.00;5.03;;;16.60;99.90;;;;;;5021560;28;20191;-52
2022/08/07 03:18:30;;;;;;;8.20;5.25;;;16.70;99.90;;;;;;5041945;28;20183;-55
2022/08/07 03:20:56;;;;;;;11.63;6.68;;;16.60;99.90;;;;;;5030933;28;20188;-54
2022/08/07 03:23:23;;;;;;;8.98;6.20;;;16.60;99.90;;;;;;5036902;28;20183;-55
2022/08/07 03:25:50;;;;;;;8.98;4.72;;;16.50;99.90;;;;;;5020266;28;20298;-54
2022/08/07 03:28:18;;;;;;;6.85;4.38;;;16.50;99.90;;;;;;5037851;28;20198;-53
2022/08/07 03:30:45;;;;;;;8.93;4.97;;;16.50;99.90;;;;;;5035022;28;20623;-55
2022/08/07 03:33:13;;;;;;;7.50;4.40;;;16.50;99.90;;;;;;5029134;28;20176;-57
2022/08/07 03:35:40;;;;;;;6.85;4.90;;;16.50;99.90;;;;;;5022388;28;20241;-55
2022/08/07 03:38:07;;;;;;;6.40;4.78;;;16.40;99.90;;;;;;5026857;28;20195;-56
2022/08/07 03:40:34;;;;;;;6.10;4.43;;;16.20;99.90;;;;;;5034730;28;20176;-55
2022/08/07 03:43:01;;;;;;;8.18;4.80;;;16.20;99.90;;;;;;5034819;28;20648;-53
2022/08/07 03:45:29;;;;;;;6.22;4.50;;;16.20;99.90;;;;;;5020843;28;20203;-55
2022/08/07 03:47:59;;;;;;;7.22;4.88;;;16.20;99.90;;;;;;5032829;28;20192;-54
2022/08/07 03:50:27;;;;;;;6.38;4.57;;;16.20;99.90;;;;;;5051049;28;20216;-57
2022/08/07 03:52:56;;;;;;;7.78;4.72;;;16.30;99.90;;;;;;5034091;28;20515;-56
2022/08/07 03:55:23;;;;;;;8.77;4.57;;;16.20;99.90;;;;;;5035502;28;20467;-55
2022/08/07 03:57:50;;;;;;;7.15;4.78;;;16.30;99.90;;;;;;5030429;28;20188;-55
2022/08/07 04:00:17;;;;;;;7.43;4.50;;;16.30;99.90;;;;;;5021998;28;20194;-51
2022/08/07 04:02:47;;;;;;;9.25;5.03;;;16.30;99.90;;;;;;5024524;28;20188;-54
2022/08/07 04:05:27;;;;;;;7.28;4.45;;;16.30;99.90;;;;;;5033362;28;20222;-55
2022/08/07 04:07:54;;;;;;;10.02;5.15;;;16.30;99.90;;;;;;5053794;28;20624;-53
2022/08/07 04:10:23;;;;;;;6.80;5.13;;;16.30;99.90;;;;;;5036816;28;20187;-53
2022/08/07 04:12:50;;;;;;;7.95;5.32;;;16.20;99.90;;;;;;5033763;28;20218;-51
2022/08/07 04:15:17;;;;;;;6.45;4.93;;;16.20;99.90;;;;;;5018879;28;20187;-55
2022/08/07 04:17:44;;;;;;;8.73;5.38;;;16.20;99.90;;;;;;5018029;28;20225;-55
2022/08/07 04:20:11;;;;;;;7.18;5.35;;;16.20;99.90;;;;;;5033779;28;20171;-54
2022/08/07 04:22:40;;;;;;;6.35;4.75;;;16.20;99.90;;;;;;5034538;28;20184;-57
2022/08/07 04:25:07;;;;;;;7.68;4.82;;;16.20;99.90;;;;;;5032412;28;20679;-55
2022/08/07 04:27:34;;;;;;;11.63;4.90;;;16.10;99.90;;;;;;5033244;28;20194;-57
2022/08/07 04:30:00;;;;;;;7.03;4.88;;;16.10;99.90;;;;;;5033629;28;20195;-57
2022/08/07 04:32:33;;;;;;;12.30;8.13;;;16.10;99.90;;;;;;5035304;28;20191;-54
2022/08/07 04:35:04;;;;;;;12.63;6.63;;;16.10;99.90;;;;;;5017141;28;20195;-53
2022/08/07 04:37:31;;;;;;;7.10;5.30;;;16.00;99.90;;;;;;5034510;28;20279;-57
2022/08/07 04:39:57;;;;;;;8.07;5.07;;;16.00;99.90;;;;;;5018100;28;20599;-55
2022/08/07 04:42:33;;;;;;;7.32;5.10;;;16.00;99.90;;;;;;5053259;28;20636;-55
2022/08/07 04:45:02;;;;;;;7.05;4.65;;;16.00;99.90;;;;;;5033765;28;20202;-51
2022/08/07 04:47:36;;;;;;;9.43;5.07;;;16.00;99.90;;;;;;5019955;28;20552;-54
2022/08/07 04:50:18;;;;;;;7.53;4.82;;;16.00;99.90;;;;;;5036469;28;20198;-53
2022/08/07 04:53:07;;;;;;;9.88;5.18;;;16.10;99.90;;;;;;5049901;28;20200;-55
2022/08/07 04:55:47;;;;;;;8.25;4.93;;;16.10;99.90;;;;;;5036750;28;20329;-53
2022/08/07 04:58:25;;;;;;;9.63;5.13;;;16.10;99.90;;;;;;5046316;28;20282;-51
2022/08/07 05:00:57;;;;;;;8.98;5.25;;;16.10;99.90;;;;;;5022458;28;20187;-53
2022/08/07 05:03:47;;;;;;;8.23;5.45;;;16.20;99.90;;;;;;5030914;28;20207;-51
2022/08/07 05:06:22;;;;;;;9.23;5.35;;;16.10;99.90;;;;;;5035669;28;20207;-50
2022/08/07 05:09:11;;;;;;;12.40;5.60;;;16.10;99.90;;;;;;5027312;28;20190;-51
2022/08/07 05:11:46;;;;;;;9.95;5.22;;;16.10;99.90;;;;;;5034982;28;20314;-52
2022/08/07 05:14:26;;;;;;;9.80;6.25;;;16.10;99.90;;;;;;5022386;28;20232;-50
2022/08/07 05:16:57;;;;;;;11.32;6.22;;;16.10;99.90;;;;;;5032004;28;20187;-53
2022/08/07 05:19:24;;;;;;;10.82;5.97;;;16.20;99.90;;;;;;5044064;28;20198;-53
2022/08/07 05:21:57;;;;;;;9.00;6.00;;;16.20;99.90;;;;;;5033322;28;20187;-56
2022/08/07 05:24:24;;;;;;;10.35;6.18;;;16.20;99.90;;;;;;5027425;28;20195;-53
2022/08/07 05:26:56;;;;;;;8.35;6.03;;;16.30;99.90;;;;;;5037643;28;20194;-55
2022/08/07 05:29:23;;;;;;;8.65;5.75;;;16.30;99.90;;;;;;5052086;28;20176;-52
2022/08/07 05:31:51;;;;;;;8.25;6.00;;;16.40;99.90;;;;;;5018068;28;20195;-53
2022/08/07 05:34:23;;;;;;;10.38;5.78;;;16.40;99.90;;;;;;5030077;28;20188;-52
2022/08/07 05:36:53;;;;;;;7.43;5.68;;;16.50;99.90;;;;;;5033515;28;20639;-55
2022/08/07 05:39:26;;;;;;;10.60;6.85;;;16.50;99.90;;;;;;5021202;28;20194;-51
2022/08/07 05:41:57;;;;;;;12.27;7.20;;;16.50;99.90;;;;;;5045404;28;20187;-54
2022/08/07 05:44:23;;;;;;;11.35;7.68;;;16.60;99.90;;;;;;5025224;28;20273;-47
2022/08/07 05:46:50;;;;;;;13.52;8.07;;;16.60;99.90;;;;;;5045758;28;20578;-53
2022/08/07 05:49:20;;;;;;;11.43;8.73;;;16.70;99.90;;;;;;5018002;28;20198;-53
2022/08/07 05:51:47;;;;;;;13.10;8.63;;;16.70;99.90;;;;;;5015835;28;20632;-49
2022/08/07 05:54:17;;;;;;;12.40;9.70;;;16.70;99.90;;;;;;5025567;28;20254;-51
2022/08/07 05:56:45;;;;;;;12.50;8.73;;;16.80;99.90;;;;;;5020560;28;20215;-54
2022/08/07 05:59:15;;;;;;;14.95;8.50;;;16.80;99.90;;;;;;5044471;28;20187;-55
2022/08/07 06:01:45;;;;;;;15.15;8.93;;;16.80;99.90;;;;;;5050383;28;20192;-54
2022/08/07 06:04:14;;;;;;;13.73;9.30;;;16.90;99.90;;;;;;5024400;28;20180;-48
2022/08/07 06:06:41;;;;;;;13.25;9.13;;;16.90;99.90;;;;;;5015683;28;20195;-53
2022/08/07 06:09:09;;;;;;;16.13;9.32;;;17.00;99.90;;;;;;5038241;28;20279;-52
2022/08/07 06:11:39;;;;;;;15.40;9.68;;;17.00;99.90;;;;;;4999766;28;20226;-53
2022/08/07 06:14:05;;;;;;;14.20;9.98;;;17.00;99.90;;;;;;5041935;28;20187;-51
2022/08/07 06:16:33;;;;;;;16.02;10.27;;;17.10;99.90;;;;;;5021197;28;20203;-52
2022/08/07 06:19:02;;;;;;;15.20;11.05;;;17.10;99.90;;;;;;5005015;28;20192;-54
2022/08/07 06:21:29;;;;;;;14.02;10.35;;;17.10;99.90;;;;;;5019444;28;23407;-50
2022/08/07 06:23:57;;;;;;;18.13;11.45;;;17.20;99.90;;;;;;5019452;28;20207;-52
2022/08/07 06:26:24;;;;;;;18.95;13.48;;;17.20;99.90;;;;;;5030913;28;20207;-52
2022/08/07 06:28:56;;;;;;;19.85;13.73;;;17.30;99.90;;;;;;5026778;28;20244;-53
2022/08/07 06:31:25;;;;;;;18.25;13.05;;;17.30;99.90;;;;;;5026119;28;20190;-50
2022/08/07 06:33:53;;;;;;;20.33;12.90;;;17.40;99.90;;;;;;5025163;28;20187;-51
2022/08/07 06:36:19;;;;;;;16.42;12.02;;;17.40;99.90;;;;;;5018141;28;20270;-53
2022/08/07 06:38:49;;;;;;;17.50;11.45;;;17.40;99.90;;;;;;5014828;28;20289;-52
2022/08/07 06:41:21;;;;;;;14.63;10.80;;;17.50;99.90;;;;;;5042617;28;20192;-58
2022/08/07 06:43:49;;;;;;;19.17;10.57;;;17.50;99.90;;;;;;5021056;28;20582;-54
2022/08/07 06:46:18;;;;;;;17.25;10.00;;;17.50;99.90;;;;;;5033819;28;20573;-47
2022/08/07 06:48:45;;;;;;;15.65;9.82;;;17.60;99.90;;;;;;5031969;28;20630;-51
2022/08/07 06:51:18;;;;;;;14.70;10.15;;;17.60;99.90;;;;;;5033545;28;20622;-49
2022/08/07 06:53:46;;;;;;;12.73;10.05;;;17.60;99.90;;;;;;5039167;28;20172;-53
2022/08/07 06:56:38;;;;;;;14.82;9.43;;;17.70;99.90;;;;;;5029902;28;20187;-55
2022/08/07 06:59:09;;;;;;;14.60;9.48;;;17.70;99.90;;;;;;5021021;28;20194;-49
2022/08/07 07:01:40;;;;;;;15.80;9.85;;;17.70;99.90;;;;;;5024911;28;20297;-52
2022/08/07 07:04:06;;;;;;;13.93;9.52;;;17.80;99.90;;;;;;5035464;28;20654;-56
2022/08/07 07:06:32;;;;;;;13.25;9.00;;;17.80;99.90;;;;;;5029678;28;20207;-55
2022/08/07 07:09:19;;;;;;;12.07;9.23;;;17.90;99.90;;;;;;5034961;28;20188;-54
2022/08/07 07:12:08;;;;;;;16.13;10.00;;;17.90;99.90;;;;;;5062457;28;20226;-57
2022/08/07 07:15:00;;;;;;;16.30;9.90;;;18.00;99.90;;;;;;5035320;28;20218;-55
2022/08/07 07:17:54;;;;;;;11.68;9.32;;;18.00;99.90;;;;;;5002372;28;20167;-58
2022/08/07 07:20:48;;;;;;;14.18;9.43;;;18.10;99.90;;;;;;5045498;28;20183;-56
2022/08/07 07:23:15;;;;;;;13.10;9.68;;;18.20;99.90;;;;;;5037209;28;20180;-54
2022/08/07 07:25:43;;;;;;;16.98;10.70;;;18.20;99.90;;;;;;5018930;28;20298;-54
2022/08/07 07:28:17;;;;;;;14.65;10.18;;;18.30;99.90;;;;;;5039549;28;20589;-57
2022/08/07 07:30:58;;;;;;;16.63;8.85;;;18.30;99.90;;;;;;5054972;28;20190;-57
2022/08/07 07:33:27;;;;;;;17.65;8.85;;;18.30;99.70;;;;;;5053504;28;20195;-56
2022/08/07 07:35:55;;;;;;;13.25;8.35;;;18.40;99.50;;;;;;5056021;28;20203;-56
2022/08/07 07:38:24;;;;;;;14.35;8.50;;;18.40;99.30;;;;;;5054315;28;20221;-55
2022/08/07 07:40:54;;;;;;;15.50;8.82;;;18.40;99.30;;;;;;5028808;28;20183;-59
2022/08/07 07:43:21;;;;;;;10.77;8.13;;;18.50;99.10;;;;;;5023662;28;20179;-57
2022/08/07 07:45:49;;;;;;;18.10;11.25;;;18.50;99.00;;;;;;5044551;28;20216;-54
2022/08/07 07:48:20;;;;;;;15.40;9.02;;;18.60;98.90;;;;;;5041015;28;20186;-54
2022/08/07 07:50:48;;;;;;;13.57;8.43;;;18.50;98.60;;;;;;5042148;28;20283;-57
2022/08/07 07:53:18;;;;;;;14.77;7.93;;;18.60;98.40;;;;;;5037061;28;20176;-59
2022/08/07 07:55:44;;;;;;;10.57;7.47;;;18.60;98.30;;;;;;5035067;28;20180;-56
2022/08/07 07:58:11;;;;;;;11.30;7.15;;;18.70;98.20;;;;;;5049579;28;20241;-58
2022/08/07 08:00:38;;;;;;;9.10;6.65;;;18.80;98.00;;;;;;5034451;28;20176;-56
2022/08/07 08:03:14;;;;;;;11.07;6.85;;;18.90;97.80;;;;;;5037880;28;20229;-57
2022/08/07 08:05:41;;;;;;;16.55;7.90;;;18.90;97.50;;;;;;5055765;28;20207;-54
2022/08/07 08:08:09;;;;;;;8.23;6.22;;;18.90;97.40;;;;;;5048330;28;20233;-57
2022/08/07 08:10:37;;;;;;;12.77;6.47;;;18.90;97.00;;;;;;5055324;28;20190;-56
2022/08/07 08:13:04;;;;;;;11.88;6.15;;;18.90;96.60;;;;;;5033243;28;20229;-53
2022/08/07 08:15:34;;;;;;;11.40;6.20;;;19.00;96.40;;;;;;5028596;28;20187;-56
2022/08/07 08:18:01;;;;;;;9.63;6.35;;;19.00;96.10;;;;;;5036177;28;20179;-55
2022/08/07 08:20:30;;;;;;;8.77;6.00;;;19.00;96.00;;;;;;5036577;28;20549;-54
2022/08/07 08:28:31;;;;;;;11.88;6.63;;;19.20;95.40;;;;;;5034698;28;20184;-53
2022/08/07 08:31:00;;;;;;;11.80;6.20;;;19.30;95.20;;;;;;5045430;28;20187;-55
2022/08/07 08:33:31;;;;;;;8.02;5.93;;;19.30;94.80;;;;;;5049530;28;20210;-54
2022/08/07 08:35:58;;;;;;;10.45;5.50;;;19.40;94.40;;;;;;5042237;28;20191;-55
2022/08/07 08:38:30;;;;;;;8.82;5.95;;;19.50;93.80;;;;;;5037737;28;20215;-53
2022/08/07 08:41:33;;;;;;;9.80;5.80;;;19.60;93.30;;;;;;5053918;28;20243;-53
2022/08/07 08:44:21;;;;;;;11.02;5.88;;;19.60;93.00;;;;;;5040485;28;20195;-50
2022/08/07 08:46:57;;;;;;;9.27;5.00;;;19.70;93.10;;;;;;5033952;28;20215;-53
2022/08/07 08:49:40;;;;;;;12.27;5.38;;;19.90;93.00;;;;;;5041921;28;20176;-55
2022/08/07 08:52:21;;;;;;;8.55;5.53;;;19.90;92.50;;;;;;5033857;28;20184;-54
2022/08/07 08:54:57;;;;;;;6.90;5.00;;;20.00;92.30;;;;;;5035049;28;20211;-54
2022/08/07 08:57:59;;;;;;;7.68;4.18;;;20.10;92.40;;;;;;5015967;28;20203;-51
2022/08/07 09:00:32;;;;;;;4.95;3.60;;;20.20;92.40;;;;;;5039017;28;20181;-52
2022/08/07 09:03:01;;;;;;;6.32;3.72;;;20.30;92.50;;;;;;5051227;28;20278;-52
2022/08/07 09:05:44;;;;;;;6.90;3.90;;;20.30;92.70;;;;;;5053307;28;20199;-55
2022/08/07 09:08:35;;;;;;;8.30;3.67;;;20.30;92.40;;;;;;5051432;28;20328;-50
2022/08/07 09:11:18;;;;;;;8.43;3.80;;;20.30;92.30;;;;;;5012350;28;1081872;-54
2022/08/07 09:13:59;;;;;;;6.35;3.50;;;20.20;92.30;;;;;;5032245;28;20194;-54
2022/08/07 09:16:40;;;;;;;7.63;3.22;;;20.10;92.30;;;;;;5033926;28;20266;-55
2022/08/07 09:19:11;;;;;;;7.80;3.30;;;20.20;92.40;;;;;;5045898;28;20186;-52
2022/08/07 09:22:00;;;;;;;9.20;3.42;;;20.20;92.20;;;;;;5046110;28;20195;-54
2022/08/07 09:24:33;;;;;;;4.65;2.60;;;20.30;91.80;;;;;;5048539;28;20187;-53
2022/08/07 09:27:41;;;;;;;8.40;3.00;;;20.40;91.70;;;;;;5036344;28;20309;-56
2022/08/07 09:30:09;;;;;;;6.50;3.25;;;20.40;91.20;;;;;;5035347;28;20180;-54
2022/08/07 09:32:35;;;;;;;9.15;3.13;;;20.50;91.10;;;;;;5045002;28;20190;-55
2022/08/07 09:35:01;;;;;;;5.70;2.80;;;20.60;91.10;;;;;;5047053;28;20205;-54
2022/08/07 09:37:48;;;;;;;8.07;3.10;;;20.70;90.70;;;;;;5015718;28;20180;-58
2022/08/07 09:40:29;;;;;;;6.82;2.72;;;20.80;90.60;;;;;;5045314;28;20218;-55
2022/08/07 09:43:18;;;;;;;6.03;2.55;;;20.90;90.30;;;;;;5036724;28;20184;-55
2022/08/07 09:46:02;;;;;;;5.88;2.85;;;21.00;89.80;;;;;;5042511;28;20218;-53
2022/08/07 09:48:50;;;;;;;6.38;2.60;;;21.10;88.90;;;;;;5027675;28;20187;-56
2022/08/07 09:51:19;;;;;;;4.55;2.60;;;21.10;87.50;;;;;;5033727;28;20253;-55
2022/08/07 09:53:50;;;;;;;6.13;2.88;;;21.10;87.60;;;;;;5033235;28;20180;-55
2022/08/07 09:56:31;;;;;;;6.88;2.72;;;21.20;86.70;;;;;;5033531;28;20190;-52
2022/08/07 09:59:19;;;;;;;5.63;2.53;;;21.30;86.30;;;;;;5044254;28;20187;-55
2022/08/07 10:02:19;;;;;;;3.92;2.58;;;21.40;85.50;;;;;;5053046;28;20172;-55
2022/08/07 10:05:04;;;;;;;6.45;2.30;;;21.50;83.90;;;;;;5035131;28;20317;-56
2022/08/07 10:07:57;;;;;;;6.15;2.42;;;21.60;84.00;;;;;;5033704;28;20592;-57
2022/08/07 10:10:43;;;;;;;5.40;2.40;;;21.70;82.80;;;;;;5032686;28;20164;-56
2022/08/07 10:13:35;;;;;;;6.32;2.78;;;21.80;82.30;;;;;;5037477;28;20223;-54
2022/08/07 10:16:28;;;;;;;3.97;2.40;;;21.80;80.60;;;;;;5050971;28;20194;-55
2022/08/07 10:19:25;;;;;;;3.53;2.22;;;21.90;79.60;;;;;;5010725;28;20192;-56
2022/08/07 10:22:14;;;;;;;5.45;2.33;;;22.00;77.70;;;;;;5032929;28;20663;-53
2022/08/07 10:24:54;;;;;;;5.03;2.22;;;22.10;78.00;;;;;;5032835;28;20210;-55
2022/08/07 10:27:33;;;;;;;4.43;2.00;;;22.20;76.10;;;;;;5032506;28;20184;-55
2022/08/07 10:30:08;;;;;;;5.03;2.17;;;22.40;75.10;;;;;;5051408;28;20187;-55
2022/08/07 10:32:58;;;;;;;5.03;2.58;;;22.50;73.90;;;;;;5033242;28;20248;-56
2022/08/07 10:35:52;;;;;;;4.93;2.35;;;22.60;71.20;;;;;;5033232;28;20179;-55
2022/08/07 10:38:37;;;;;;;3.90;1.60;;;22.70;70.10;;;;;;5035893;28;20184;-55
2022/08/07 10:41:18;;;;;;;3.92;2.28;;;22.80;69.60;;;;;;5015290;28;20678;-55
2022/08/07 10:44:07;;;;;;;3.63;2.45;;;22.90;68.00;;;;;;5041560;28;20232;-55
2022/08/07 10:46:58;;;;;;;3.65;2.15;;;23.00;66.40;;;;;;5035579;28;20218;-52
2022/08/07 10:49:54;;;;;;;3.38;2.10;;;23.10;65.10;;;;;;5046776;28;20215;-50
2022/08/07 10:53:01;;;;;;;4.68;1.88;;;23.10;65.00;;;;;;5030920;28;20590;-51
2022/08/07 10:55:39;;;;;;;4.70;1.60;;;23.20;62.50;;;;;;5030997;28;20202;-53
2022/08/07 10:58:19;;;;;;;3.25;1.67;;;23.30;63.20;;;;;;5033383;28;20179;-55
2022/08/07 11:01:11;;;;;;;8.38;1.80;;;23.40;60.70;;;;;;5052351;28;20190;-54
2022/08/07 11:03:47;;;;;;;5.40;1.83;;;23.50;59.40;;;;;;5050099;28;20183;-53
2022/08/07 11:06:20;;;;;;;3.97;2.00;;;23.50;59.70;;;;;;5052328;28;20218;-52
2022/08/07 11:09:03;;;;;;;4.22;2.42;;;23.60;60.90;;;;;;5044528;28;20184;-55
2022/08/07 11:11:30;;;;;;;4.20;2.60;;;23.60;62.20;;;;;;5032534;28;20710;-54
2022/08/07 11:14:04;;;;;;;3.83;2.35;;;23.70;62.70;;;;;;5038216;28;20188;-54
2022/08/07 11:16:51;;;;;;;4.45;2.40;;;23.70;63.20;;;;;;5032149;28;20734;-53
2022/08/07 11:19:20;;;;;;;4.22;2.20;;;23.80;62.00;;;;;;5036588;28;20571;-53
2022/08/07 11:21:57;;;;;;;4.22;2.30;;;23.90;62.60;;;;;;5032374;28;20181;-54
2022/08/07 11:24:50;;;;;;;6.75;2.47;;;23.90;62.50;;;;;;5032221;28;20183;-53
2022/08/07 11:27:28;;;;;;;3.13;2.03;;;24.10;61.30;;;;;;5036179;28;20191;-53
2022/08/07 11:30:01;;;;;;;5.28;2.60;;;24.20;62.00;;;;;;5032426;28;20183;-52
2022/08/07 11:32:44;;;;;;;2.92;2.10;;;24.20;61.20;;;;;;5013835;28;20222;-60
2022/08/07 11:35:18;;;;;;;3.63;2.22;;;24.20;60.30;;;;;;5014650;28;20184;-53
2022/08/07 11:37:53;;;;;;;6.25;2.10;;;24.40;60.70;;;;;;5032651;28;20229;-54
2022/08/07 11:40:42;;;;;;;4.40;2.30;;;24.50;60.60;;;;;;5034588;28;20232;-52
2022/08/07 11:43:32;;;;;;;3.75;2.10;;;24.60;59.90;;;;;;5044565;28;20185;-51
2022/08/07 11:46:17;;;;;;;5.40;2.28;;;24.70;59.20;;;;;;5021335;28;20219;-49
2022/08/07 11:48:46;;;;;;;4.32;2.03;;;24.80;58.40;;;;;;5031607;28;20215;-49
2022/08/07 11:51:23;;;;;;;4.70;2.40;;;24.80;58.30;;;;;;5031941;28;20190;-47
2022/08/07 11:54:07;;;;;;;3.40;2.20;;;24.90;57.90;;;;;;5041397;28;20560;-57
2022/08/07 11:56:44;;;;;;;7.32;2.47;;;24.90;57.50;;;;;;5030583;28;20180;-53
2022/08/07 11:59:40;;;;;;;3.58;2.00;;;24.90;57.70;;;;;;5042189;28;20187;-54
2022/08/07 12:02:29;;;;;;;5.68;2.17;;;25.00;57.90;;;;;;5042134;28;20190;-53
2022/08/07 12:05:13;;;;;;;6.38;2.28;;;25.10;57.30;;;;;;5054342;28;20215;-54
2022/08/07 12:08:00;;;;;;;4.35;2.50;;;25.20;57.30;;;;;;5053669;28;20174;-57
2022/08/07 12:10:45;;;;;;;4.95;2.30;;;25.30;57.30;;;;;;5018106;28;20199;-54
2022/08/07 12:13:42;;;;;;;6.50;2.22;;;25.30;57.00;;;;;;5034814;28;20223;-54
2022/08/07 12:16:16;;;;;;;5.60;2.60;;;25.40;56.90;;;;;;5027415;28;20192;-54
2022/08/07 12:19:00;;;;;;;3.80;2.17;;;25.50;56.70;;;;;;5018205;28;20563;-52
2022/08/07 12:21:39;;;;;;;9.05;2.50;;;25.60;56.10;;;;;;5050307;28;20183;-54
2022/08/07 12:24:20;;;;;;;3.25;2.00;;;25.60;55.80;;;;;;5048108;28;20203;-53
2022/08/07 12:27:22;;;;;;;3.35;1.92;;;25.70;55.40;;;;;;5054843;28;20210;-53
2022/08/07 12:29:58;;;;;;;4.28;2.10;;;25.70;55.00;;;;;;5005683;28;20637;-53
2022/08/07 12:32:37;;;;;;;4.80;2.28;;;25.80;56.00;;;;;;5019384;28;20191;-52
2022/08/07 12:35:05;;;;;;;4.43;2.00;;;25.90;55.20;;;;;;5035442;28;20194;-54
2022/08/07 12:37:32;;;;;;;3.42;2.10;;;25.80;54.80;;;;;;5034615;28;20576;-53
2022/08/07 12:40:01;;;;;;;3.85;2.10;;;25.80;55.10;;;;;;5037665;28;20677;-57
2022/08/07 12:42:29;;;;;;;6.70;3.15;;;25.80;54.50;;;;;;5027282;28;20183;-60
2022/08/07 12:45:01;;;;;;;6.03;2.08;;;25.80;54.70;;;;;;5032691;28;20579;-54
2022/08/07 12:47:39;;;;;;;6.15;2.17;;;25.80;54.70;;;;;;5016004;28;20195;-58
2022/08/07 12:50:23;;;;;;;8.90;2.40;;;25.80;54.90;;;;;;5017153;28;20188;-53
2022/08/07 12:53:02;;;;;;;5.78;2.00;;;25.80;55.30;;;;;;5034269;28;20283;-60
2022/08/07 12:55:37;;;;;;;6.63;2.05;;;25.80;55.20;;;;;;5054876;28;20179;-55
2022/08/07 12:58:05;;;;;;;5.65;2.40;;;25.80;55.20;;;;;;5052649;28;20652;-54
2022/08/07 13:01:01;;;;;;;4.90;1.80;;;25.80;55.20;;;;;;5049442;28;20176;-51
2022/08/07 13:04:21;;;;;;;4.47;2.00;;;25.90;55.50;;;;;;5033430;28;20180;-53
2022/08/07 13:07:05;;;;;;;3.85;1.88;;;26.20;54.90;;;;;;4954489;29;20230;-54
2022/08/07 13:09:43;;;;;;;3.33;1.70;;;26.50;54.50;;;;;;5034074;28;20202;-51
2022/08/07 13:12:15;;;;;;;4.80;1.42;;;26.70;54.00;;;;;;5033752;28;20877;-50
2022/08/07 13:15:22;;;;;;;4.53;1.60;;;26.80;53.20;;;;;;5019988;28;20175;-51
2022/08/07 13:17:57;;;;;;;3.13;1.65;;;27.00;51.10;;;;;;4962738;28;20272;-54
2022/08/07 13:20:34;;;;;;;4.93;2.00;;;27.00;51.10;;;;;;5036589;28;20248;-52
2022/08/07 13:23:05;;;;;;;6.57;1.90;;;27.00;51.30;;;;;;5052043;28;20641;-54